sensor_id;sensor_type;location;lat;lon;timestamp;temperature;humidity
19799;DHT22;10059;59.850;10.454;2023-07-16T00:00:54;16.60;99.90
19799;DHT22;10059;59.850;10.454;2023-07-16T00:03:21;16.70;99.90
19799;DHT22;10059;59.850;10.454;2023-07-16T00:05:49;16.80;99.90
19799;DHT22;10059;59.850;10.454;2023-07-16T00:08:16;16.80;99.90
19799;DHT22;10059;59.850;10.454;2023-07-16T00:10:45;16.80;99.90
19799;DHT22;10059;59.850;10.454;2023-07-16T00:13:11;16.70;99.90
19799;DHT22;10059;59.850;10.454;2023-07-16T00:15:38;16.70;99.90
19799;DHT22;10059;59.850;10.454;2023-07-16T00:18:05;16.80;99.90
19799;DHT22;10059;59.850;10.454;2023-07-16T00:20:32;16.80;99.90
19799;DHT22;10059;59.850;10.454;2023-07-16T00:22:59;16.80;99.90
19799;DHT22;10059;59.850;10.454;2023-07-16T00:25:26;16.60;99.90
19799;DHT22;10059;59.850;10.454;2023-07-16T00:27:54;16.60;99.90
19799;DHT22;10059;59.850;10.454;2023-07-16T00:30:21;16.70;99.90
19799;DHT22;10059;59.850;10.454;2023-07-16T00:32:47;16.60;99.90
19799;DHT22;10059;59.850;10.454;2023-07-16T00:35:14;16.60;99.90
19799;DHT22;10059;59.850;10.454;2023-07-16T00:37:41;16.60;99.90
19799;DHT22;10059;59.850;10.454;2023-07-16T00:40:08;16.80;99.90
19799;DHT22;10059;59.850;10.454;2023-07-16T00:42:35;16.60;99.90
19799;DHT22;10059;59.850;10.454;2023-07-16T00:45:09;16.50;99.90
19799;DHT22;10059;59.850;10.454;2023-07-16T00:47:37;16.40;99.90
19799;DHT22;10059;59.850;10.454;2023-07-16T00:50:05;16.40;99.90
19799;DHT22;10059;59.850;10.454;2023-07-16T00:52:33;16.50;99.90
19799;DHT22;10059;59.850;10.454;2023-07-16T00:54:59;16.50;99.90
19799;DHT22;10059;59.850;10.454;2023-07-16T00:57:26;16.50;99.90
19799;DHT22;10059;59.850;10.454;2023-07-16T00:59:53;16.50;99.90
19799;DHT22;10059;59.850;10.454;2023-07-16T01:02:21;16.50;99.90
19799;DHT22;10059;59.850;10.454;2023-07-16T01:04:48;16.40;99.90
19799;DHT22;10059;59.850;10.454;2023-07-16T01:07:16;16.40;99.90
19799;DHT22;10059;59.850;10.454;2023-07-16T01:09:45;16.50;99.90
19799;DHT22;10059;59.850;10.454;2023-07-16T01:12:12;16.50;99.90
19799;DHT22;10059;59.850;10.454;2023-07-16T01:14:40;16.70;99.90
19799;DHT22;10059;59.850;10.454;2023-07-16T01:17:07;16.60;99.90
19799;DHT22;10059;59.850;10.454;2023-07-16T01:19:35;16.50;99.90
19799;DHT22;10059;59.850;10.454;2023-07-16T01:22:27;16.60;99.90
19799;DHT22;10059;59.850;10.454;2023-07-16T01:25:09;16.60;99.90
19799;DHT22;10059;59.850;10.454;2023-07-16T01:27:56;16.50;99.90
19799;DHT22;10059;59.850;10.454;2023-07-16T01:30:27;16.60;99.90
19799;DHT22;10059;59.850;10.454;2023-07-16T01:32:55;16.70;99.90
19799;DHT22;10059;59.850;10.454;2023-07-16T01:35:23;16.70;99.90
19799;DHT22;10059;59.850;10.454;2023-07-16T01:37:50;16.60;99.90
19799;DHT22;10059;59.850;10.454;2023-07-16T01:40:17;16.60;99.90
19799;DHT22;10059;59.850;10.454;2023-07-16T01:42:43;16.60;99.90
19799;DHT22;10059;59.850;10.454;2023-07-16T01:45:10;16.70;99.90
19799;DHT22;10059;59.850;10.454;2023-07-16T01:47:48;16.70;99.90
19799;DHT22;10059;59.850;10.454;2023-07-16T01:50:16;16.70;99.90
19799;DHT22;10059;59.850;10.454;2023-07-16T01:52:43;16.50;99.90
19799;DHT22;10059;59.850;10.454;2023-07-16T01:55:10;16.50;99.90
19799;DHT22;10059;59.850;10.454;2023-07-16T01:57:37;16.40;99.90
19799;DHT22;10059;59.850;10.454;2023-07-16T02:00:05;16.40;99.90
19799;DHT22;10059;59.850;10.454;2023-07-16T02:02:33;16.40;99.90
19799;DHT22;10059;59.850;10.454;2023-07-16T02:05:01;16.40;99.90
19799;DHT22;10059;59.850;10.454;2023-07-16T02:07:28;16.50;99.90
19799;DHT22;10059;59.850;10.454;2023-07-16T02:09:56;16.50;99.90
19799;DHT22;10059;59.850;10.454;2023-07-16T02:12:22;16.50;99.90
19799;DHT22;10059;59.850;10.454;2023-07-16T02:14:49;16.60;99.90
19799;DHT22;10059;59.850;10.454;2023-07-16T02:17:16;16.70;99.90
19799;DHT22;10059;59.850;10.454;2023-07-16T02:19:43;16.80;99.90
19799;DHT22;10059;59.850;10.454;2023-07-16T02:22:11;16.60;99.90
19799;DHT22;10059;59.850;10.454;2023-07-16T02:24:38;16.70;99.90
19799;DHT22;10059;59.850;10.454;2023-07-16T02:27:05;16.70;99.90
19799;DHT22;10059;59.850;10.454;2023-07-16T02:29:32;16.50;99.90
19799;DHT22;10059;59.850;10.454;2023-07-16T02:31:59;16.40;99.90
19799;DHT22;10059;59.850;10.454;2023-07-16T02:34:26;16.40;99.90
19799;DHT22;10059;59.850;10.454;2023-07-16T02:36:52;16.50;99.90
19799;DHT22;10059;59.850;10.454;2023-07-16T02:39:20;16.60;99.90
19799;DHT22;10059;59.850;10.454;2023-07-16T02:41:47;16.50;99.90
19799;DHT22;10059;59.850;10.454;2023-07-16T02:44:14;16.60;99.90
19799;DHT22;10059;59.850;10.454;2023-07-16T02:46:41;16.60;99.90
19799;DHT22;10059;59.850;10.454;2023-07-16T02:49:09;16.50;99.90
19799;DHT22;10059;59.850;10.454;2023-07-16T02:51:36;16.50;99.90
19799;DHT22;10059;59.850;10.454;2023-07-16T02:54:03;16.40;99.90
19799;DHT22;10059;59.850;10.454;2023-07-16T02:56:31;16.40;99.90
19799;DHT22;10059;59.850;10.454;2023-07-16T02:58:58;16.20;99.90
19799;DHT22;10059;59.850;10.454;2023-07-16T03:01:25;16.20;99.90
19799;DHT22;10059;59.850;10.454;2023-07-16T03:03:52;16.30;99.90
19799;DHT22;10059;59.850;10.454;2023-07-16T03:06:18;16.30;99.90
19799;DHT22;10059;59.850;10.454;2023-07-16T03:08:45;16.30;99.90
19799;DHT22;10059;59.850;10.454;2023-07-16T03:11:12;16.20;99.90
19799;DHT22;10059;59.850;10.454;2023-07-16T03:13:41;16.10;99.90
19799;DHT22;10059;59.850;10.454;2023-07-16T03:16:07;16.10;99.90
19799;DHT22;10059;59.850;10.454;2023-07-16T03:18:34;16.20;99.90
19799;DHT22;10059;59.850;10.454;2023-07-16T03:21:01;16.20;99.90
19799;DHT22;10059;59.850;10.454;2023-07-16T03:23:28;16.30;99.90
19799;DHT22;10059;59.850;10.454;2023-07-16T03:25:55;16.30;99.90
19799;DHT22;10059;59.850;10.454;2023-07-16T03:28:21;16.40;99.90
19799;DHT22;10059;59.850;10.454;2023-07-16T03:30:50;16.50;99.90
19799;DHT22;10059;59.850;10.454;2023-07-16T03:33:17;16.50;99.90
19799;DHT22;10059;59.850;10.454;2023-07-16T03:35:45;16.50;99.90
19799;DHT22;10059;59.850;10.454;2023-07-16T03:38:12;16.50;99.90
19799;DHT22;10059;59.850;10.454;2023-07-16T03:40:39;16.30;99.90
19799;DHT22;10059;59.850;10.454;2023-07-16T03:43:06;16.50;99.90
19799;DHT22;10059;59.850;10.454;2023-07-16T03:45:33;16.30;99.90
19799;DHT22;10059;59.850;10.454;2023-07-16T03:48:02;16.10;99.90
19799;DHT22;10059;59.850;10.454;2023-07-16T03:50:28;16.20;99.90
19799;DHT22;10059;59.850;10.454;2023-07-16T03:52:55;16.20;99.90
19799;DHT22;10059;59.850;10.454;2023-07-16T03:55:22;16.20;99.90
19799;DHT22;10059;59.850;10.454;2023-07-16T03:57:49;16.20;99.90
19799;DHT22;10059;59.850;10.454;2023-07-16T04:00:16;16.10;99.90
19799;DHT22;10059;59.850;10.454;2023-07-16T04:02:42;16.20;99.90
19799;DHT22;10059;59.850;10.454;2023-07-16T04:05:11;16.30;99.90
19799;DHT22;10059;59.850;10.454;2023-07-16T04:07:38;16.30;99.90
19799;DHT22;10059;59.850;10.454;2023-07-16T04:10:05;16.40;99.90
19799;DHT22;10059;59.850;10.454;2023-07-16T04:12:32;16.40;99.90
19799;DHT22;10059;59.850;10.454;2023-07-16T04:14:59;16.50;99.90
19799;DHT22;10059;59.850;10.454;2023-07-16T04:17:26;16.30;99.90
19799;DHT22;10059;59.850;10.454;2023-07-16T04:19:53;16.30;99.90
19799;DHT22;10059;59.850;10.454;2023-07-16T04:22:21;16.30;99.90
19799;DHT22;10059;59.850;10.454;2023-07-16T04:24:48;16.40;99.90
19799;DHT22;10059;59.850;10.454;2023-07-16T04:27:14;16.50;99.90
19799;DHT22;10059;59.850;10.454;2023-07-16T04:29:41;16.40;99.90
19799;DHT22;10059;59.850;10.454;2023-07-16T04:32:08;16.40;99.90
19799;DHT22;10059;59.850;10.454;2023-07-16T04:34:35;16.40;99.90
19799;DHT22;10059;59.850;10.454;2023-07-16T04:37:02;16.50;99.90
19799;DHT22;10059;59.850;10.454;2023-07-16T04:39:30;16.40;99.90
19799;DHT22;10059;59.850;10.454;2023-07-16T04:41:57;16.50;99.90
19799;DHT22;10059;59.850;10.454;2023-07-16T04:44:24;16.60;99.90
19799;DHT22;10059;59.850;10.454;2023-07-16T04:46:50;16.60;99.90
19799;DHT22;10059;59.850;10.454;2023-07-16T04:49:17;16.50;99.90
19799;DHT22;10059;59.850;10.454;2023-07-16T04:51:44;16.60;99.90
19799;DHT22;10059;59.850;10.454;2023-07-16T04:54:11;16.80;99.90
19799;DHT22;10059;59.850;10.454;2023-07-16T04:56:39;16.80;99.90
19799;DHT22;10059;59.850;10.454;2023-07-16T04:59:06;16.80;99.90
19799;DHT22;10059;59.850;10.454;2023-07-16T05:01:32;16.90;99.90
19799;DHT22;10059;59.850;10.454;2023-07-16T05:03:59;16.90;99.90
19799;DHT22;10059;59.850;10.454;2023-07-16T05:06:26;16.70;99.90
19799;DHT22;10059;59.850;10.454;2023-07-16T05:08:53;16.90;99.90
19799;DHT22;10059;59.850;10.454;2023-07-16T05:11:20;16.80;99.90
19799;DHT22;10059;59.850;10.454;2023-07-16T05:13:48;16.70;99.90
19799;DHT22;10059;59.850;10.454;2023-07-16T05:16:14;16.70;99.90
19799;DHT22;10059;59.850;10.454;2023-07-16T05:18:41;16.90;99.90
19799;DHT22;10059;59.850;10.454;2023-07-16T05:21:08;16.90;99.90
19799;DHT22;10059;59.850;10.454;2023-07-16T05:23:35;17.10;99.90
19799;DHT22;10059;59.850;10.454;2023-07-16T05:26:02;16.90;99.90
19799;DHT22;10059;59.850;10.454;2023-07-16T05:28:28;16.90;99.90
19799;DHT22;10059;59.850;10.454;2023-07-16T05:31:01;16.70;99.90
19799;DHT22;10059;59.850;10.454;2023-07-16T05:33:27;16.80;99.90
19799;DHT22;10059;59.850;10.454;2023-07-16T05:35:54;16.80;99.90
19799;DHT22;10059;59.850;10.454;2023-07-16T05:38:21;16.80;99.90
19799;DHT22;10059;59.850;10.454;2023-07-16T05:40:48;16.80;99.90
19799;DHT22;10059;59.850;10.454;2023-07-16T05:43:15;16.90;99.90
19799;DHT22;10059;59.850;10.454;2023-07-16T05:45:42;16.90;99.90
19799;DHT22;10059;59.850;10.454;2023-07-16T05:48:10;16.80;99.90
19799;DHT22;10059;59.850;10.454;2023-07-16T05:50:37;16.70;99.90
19799;DHT22;10059;59.850;10.454;2023-07-16T05:53:04;16.60;99.90
19799;DHT22;10059;59.850;10.454;2023-07-16T05:55:31;16.60;99.90
19799;DHT22;10059;59.850;10.454;2023-07-16T05:57:57;16.70;99.90
19799;DHT22;10059;59.850;10.454;2023-07-16T06:00:24;16.60;99.90
19799;DHT22;10059;59.850;10.454;2023-07-16T06:02:51;16.70;99.90
19799;DHT22;10059;59.850;10.454;2023-07-16T06:05:19;16.50;99.90
19799;DHT22;10059;59.850;10.454;2023-07-16T06:07:46;16.50;99.90
19799;DHT22;10059;59.850;10.454;2023-07-16T06:10:13;16.60;99.90
19799;DHT22;10059;59.850;10.454;2023-07-16T06:12:40;16.60;99.90
19799;DHT22;10059;59.850;10.454;2023-07-16T06:15:07;16.70;99.90
19799;DHT22;10059;59.850;10.454;2023-07-16T06:17:34;16.80;99.90
19799;DHT22;10059;59.850;10.454;2023-07-16T06:20:02;16.80;99.90
19799;DHT22;10059;59.850;10.454;2023-07-16T06:22:30;16.80;99.90
19799;DHT22;10059;59.850;10.454;2023-07-16T06:24:57;16.80;99.90
19799;DHT22;10059;59.850;10.454;2023-07-16T06:27:24;16.80;99.90
19799;DHT22;10059;59.850;10.454;2023-07-16T06:29:51;16.80;99.90
19799;DHT22;10059;59.850;10.454;2023-07-16T06:32:18;16.80;99.90
19799;DHT22;10059;59.850;10.454;2023-07-16T06:34:46;16.90;99.90
19799;DHT22;10059;59.850;10.454;2023-07-16T06:37:12;16.90;99.90
19799;DHT22;10059;59.850;10.454;2023-07-16T06:39:40;16.90;99.90
19799;DHT22;10059;59.850;10.454;2023-07-16T06:42:07;16.90;99.90
19799;DHT22;10059;59.850;10.454;2023-07-16T06:44:34;16.90;99.90
19799;DHT22;10059;59.850;10.454;2023-07-16T06:47:01;16.80;99.90
19799;DHT22;10059;59.850;10.454;2023-07-16T06:49:29;16.90;99.90
19799;DHT22;10059;59.850;10.454;2023-07-16T06:51:56;16.90;99.90
19799;DHT22;10059;59.850;10.454;2023-07-16T06:54:23;16.90;99.90
19799;DHT22;10059;59.850;10.454;2023-07-16T06:56:51;16.90;99.90
19799;DHT22;10059;59.850;10.454;2023-07-16T06:59:18;16.90;99.90
19799;DHT22;10059;59.850;10.454;2023-07-16T07:01:44;16.80;99.90
19799;DHT22;10059;59.850;10.454;2023-07-16T07:04:11;16.90;99.90
19799;DHT22;10059;59.850;10.454;2023-07-16T07:06:38;16.90;99.90
19799;DHT22;10059;59.850;10.454;2023-07-16T07:09:05;17.20;99.90
19799;DHT22;10059;59.850;10.454;2023-07-16T07:11:32;17.50;99.90
19799;DHT22;10059;59.850;10.454;2023-07-16T07:14:00;17.50;99.90
19799;DHT22;10059;59.850;10.454;2023-07-16T07:16:27;17.60;99.90
19799;DHT22;10059;59.850;10.454;2023-07-16T07:18:53;17.60;99.90
19799;DHT22;10059;59.850;10.454;2023-07-16T07:21:20;17.50;99.90
19799;DHT22;10059;59.850;10.454;2023-07-16T07:23:47;17.40;99.90
19799;DHT22;10059;59.850;10.454;2023-07-16T07:26:14;17.30;99.90
19799;DHT22;10059;59.850;10.454;2023-07-16T07:28:40;17.50;99.90
19799;DHT22;10059;59.850;10.454;2023-07-16T07:31:09;17.70;99.90
19799;DHT22;10059;59.850;10.454;2023-07-16T07:33:35;17.70;99.90
19799;DHT22;10059;59.850;10.454;2023-07-16T07:36:02;17.70;99.90
19799;DHT22;10059;59.850;10.454;2023-07-16T07:38:29;17.70;99.90
19799;DHT22;10059;59.850;10.454;2023-07-16T07:40:56;17.50;99.90
19799;DHT22;10059;59.850;10.454;2023-07-16T07:43:23;17.60;99.90
19799;DHT22;10059;59.850;10.454;2023-07-16T07:45:50;17.60;99.90
19799;DHT22;10059;59.850;10.454;2023-07-16T07:48:18;17.60;99.90
19799;DHT22;10059;59.850;10.454;2023-07-16T07:50:46;17.80;99.90
19799;DHT22;10059;59.850;10.454;2023-07-16T07:53:13;17.90;99.90
19799;DHT22;10059;59.850;10.454;2023-07-16T07:55:43;18.10;99.90
19799;DHT22;10059;59.850;10.454;2023-07-16T07:58:10;18.30;99.90
19799;DHT22;10059;59.850;10.454;2023-07-16T08:00:37;19.10;99.90
19799;DHT22;10059;59.850;10.454;2023-07-16T08:03:04;19.00;99.90
19799;DHT22;10059;59.850;10.454;2023-07-16T08:05:32;19.00;99.90
19799;DHT22;10059;59.850;10.454;2023-07-16T08:07:59;19.10;99.90
19799;DHT22;10059;59.850;10.454;2023-07-16T08:10:26;18.40;99.90
19799;DHT22;10059;59.850;10.454;2023-07-16T08:12:53;18.10;99.90
19799;DHT22;10059;59.850;10.454;2023-07-16T08:15:20;18.10;99.90
19799;DHT22;10059;59.850;10.454;2023-07-16T08:17:47;18.00;99.90
19799;DHT22;10059;59.850;10.454;2023-07-16T08:20:14;17.90;99.90
19799;DHT22;10059;59.850;10.454;2023-07-16T08:22:42;18.00;99.90
19799;DHT22;10059;59.850;10.454;2023-07-16T08:25:09;18.10;99.90
19799;DHT22;10059;59.850;10.454;2023-07-16T08:27:37;18.00;99.90
19799;DHT22;10059;59.850;10.454;2023-07-16T08:30:05;18.00;99.90
19799;DHT22;10059;59.850;10.454;2023-07-16T08:32:32;18.60;99.90
19799;DHT22;10059;59.850;10.454;2023-07-16T08:34:58;19.20;99.90
19799;DHT22;10059;59.850;10.454;2023-07-16T08:37:25;20.40;99.90
19799;DHT22;10059;59.850;10.454;2023-07-16T08:39:53;20.60;99.90
19799;DHT22;10059;59.850;10.454;2023-07-16T08:42:20;19.80;99.90
19799;DHT22;10059;59.850;10.454;2023-07-16T08:44:48;19.80;99.90
19799;DHT22;10059;59.850;10.454;2023-07-16T08:47:16;19.80;99.90
19799;DHT22;10059;59.850;10.454;2023-07-16T08:49:53;19.90;99.90
19799;DHT22;10059;59.850;10.454;2023-07-16T08:52:21;19.70;99.90
19799;DHT22;10059;59.850;10.454;2023-07-16T08:54:48;19.10;99.90
19799;DHT22;10059;59.850;10.454;2023-07-16T08:57:16;19.00;99.90
19799;DHT22;10059;59.850;10.454;2023-07-16T08:59:44;19.10;99.90
19799;DHT22;10059;59.850;10.454;2023-07-16T09:02:13;19.50;99.90
19799;DHT22;10059;59.850;10.454;2023-07-16T09:04:40;20.00;99.90
19799;DHT22;10059;59.850;10.454;2023-07-16T09:07:07;20.30;99.90
19799;DHT22;10059;59.850;10.454;2023-07-16T09:09:34;20.30;99.90
19799;DHT22;10059;59.850;10.454;2023-07-16T09:12:02;20.60;99.90
19799;DHT22;10059;59.850;10.454;2023-07-16T09:14:30;20.80;99.90
19799;DHT22;10059;59.850;10.454;2023-07-16T09:16:57;20.80;99.90
19799;DHT22;10059;59.850;10.454;2023-07-16T09:19:25;21.20;99.90
19799;DHT22;10059;59.850;10.454;2023-07-16T09:21:52;21.90;99.90
19799;DHT22;10059;59.850;10.454;2023-07-16T09:24:19;22.00;99.90
19799;DHT22;10059;59.850;10.454;2023-07-16T09:26:49;21.30;99.90
19799;DHT22;10059;59.850;10.454;2023-07-16T09:29:16;20.50;99.90
19799;DHT22;10059;59.850;10.454;2023-07-16T09:31:55;20.80;99.90
19799;DHT22;10059;59.850;10.454;2023-07-16T09:34:22;21.00;99.90
19799;DHT22;10059;59.850;10.454;2023-07-16T09:36:49;21.30;99.90
19799;DHT22;10059;59.850;10.454;2023-07-16T09:39:17;21.50;99.90
19799;DHT22;10059;59.850;10.454;2023-07-16T09:41:45;22.00;99.90
19799;DHT22;10059;59.850;10.454;2023-07-16T09:44:13;22.00;99.90
19799;DHT22;10059;59.850;10.454;2023-07-16T09:46:40;21.00;99.90
19799;DHT22;10059;59.850;10.454;2023-07-16T09:49:09;20.80;99.90
19799;DHT22;10059;59.850;10.454;2023-07-16T09:51:37;21.60;99.90
19799;DHT22;10059;59.850;10.454;2023-07-16T09:54:04;21.30;99.90
19799;DHT22;10059;59.850;10.454;2023-07-16T09:56:35;21.00;99.90
19799;DHT22;10059;59.850;10.454;2023-07-16T09:59:06;20.60;99.90
19799;DHT22;10059;59.850;10.454;2023-07-16T10:01:35;20.20;99.90
19799;DHT22;10059;59.850;10.454;2023-07-16T10:04:12;19.80;99.90
19799;DHT22;10059;59.850;10.454;2023-07-16T10:06:52;19.50;99.90
19799;DHT22;10059;59.850;10.454;2023-07-16T10:09:38;19.80;99.90
19799;DHT22;10059;59.850;10.454;2023-07-16T10:12:14;20.30;99.90
19799;DHT22;10059;59.850;10.454;2023-07-16T10:14:43;20.70;99.90
19799;DHT22;10059;59.850;10.454;2023-07-16T10:17:14;20.70;99.90
19799;DHT22;10059;59.850;10.454;2023-07-16T10:19:56;21.20;99.90
19799;DHT22;10059;59.850;10.454;2023-07-16T10:22:34;21.00;99.90
19799;DHT22;10059;59.850;10.454;2023-07-16T10:25:02;20.80;99.90
19799;DHT22;10059;59.850;10.454;2023-07-16T10:27:30;20.80;99.90
19799;DHT22;10059;59.850;10.454;2023-07-16T10:29:58;20.60;99.90
19799;DHT22;10059;59.850;10.454;2023-07-16T10:32:27;20.60;99.90
19799;DHT22;10059;59.850;10.454;2023-07-16T10:34:56;20.90;99.90
19799;DHT22;10059;59.850;10.454;2023-07-16T10:37:24;20.90;99.90
19799;DHT22;10059;59.850;10.454;2023-07-16T10:39:53;21.00;99.90
19799;DHT22;10059;59.850;10.454;2023-07-16T10:42:20;20.60;99.90
19799;DHT22;10059;59.850;10.454;2023-07-16T10:44:49;20.30;99.90
19799;DHT22;10059;59.850;10.454;2023-07-16T10:47:22;19.80;99.90
19799;DHT22;10059;59.850;10.454;2023-07-16T10:49:49;19.80;99.90
19799;DHT22;10059;59.850;10.454;2023-07-16T10:52:19;19.90;99.90
19799;DHT22;10059;59.850;10.454;2023-07-16T10:54:45;19.70;99.90
19799;DHT22;10059;59.850;10.454;2023-07-16T10:57:13;19.60;99.90
19799;DHT22;10059;59.850;10.454;2023-07-16T10:59:42;19.10;99.90
19799;DHT22;10059;59.850;10.454;2023-07-16T11:02:11;18.80;99.90
19799;DHT22;10059;59.850;10.454;2023-07-16T11:04:39;18.40;99.90
19799;DHT22;10059;59.850;10.454;2023-07-16T11:07:07;18.40;99.90
19799;DHT22;10059;59.850;10.454;2023-07-16T11:09:40;18.70;99.90
19799;DHT22;10059;59.850;10.454;2023-07-16T11:12:08;18.60;99.90
19799;DHT22;10059;59.850;10.454;2023-07-16T11:14:36;18.50;99.90
19799;DHT22;10059;59.850;10.454;2023-07-16T11:17:07;18.50;99.90
19799;DHT22;10059;59.850;10.454;2023-07-16T11:19:35;18.50;99.90
19799;DHT22;10059;59.850;10.454;2023-07-16T11:22:03;18.60;99.90
19799;DHT22;10059;59.850;10.454;2023-07-16T11:24:38;18.50;99.90
19799;DHT22;10059;59.850;10.454;2023-07-16T11:27:12;18.30;99.90
19799;DHT22;10059;59.850;10.454;2023-07-16T11:29:39;18.40;99.90
19799;DHT22;10059;59.850;10.454;2023-07-16T11:32:08;18.70;99.90
19799;DHT22;10059;59.850;10.454;2023-07-16T11:34:34;18.30;99.90
19799;DHT22;10059;59.850;10.454;2023-07-16T11:37:09;18.20;99.90
19799;DHT22;10059;59.850;10.454;2023-07-16T11:39:37;17.90;99.90
19799;DHT22;10059;59.850;10.454;2023-07-16T11:42:05;17.80;99.90
19799;DHT22;10059;59.850;10.454;2023-07-16T11:44:35;17.80;99.90
19799;DHT22;10059;59.850;10.454;2023-07-16T11:47:03;17.70;99.90
19799;DHT22;10059;59.850;10.454;2023-07-16T11:49:30;17.60;99.90
19799;DHT22;10059;59.850;10.454;2023-07-16T11:51:57;17.70;99.90
19799;DHT22;10059;59.850;10.454;2023-07-16T11:54:24;17.70;99.90
19799;DHT22;10059;59.850;10.454;2023-07-16T11:56:52;17.60;99.90
19799;DHT22;10059;59.850;10.454;2023-07-16T11:59:19;17.60;99.90
19799;DHT22;10059;59.850;10.454;2023-07-16T12:01:48;17.40;99.90
19799;DHT22;10059;59.850;10.454;2023-07-16T12:04:15;17.40;99.90
19799;DHT22;10059;59.850;10.454;2023-07-16T12:06:42;17.30;99.90
19799;DHT22;10059;59.850;10.454;2023-07-16T12:09:09;17.30;99.90
19799;DHT22;10059;59.850;10.454;2023-07-16T12:11:36;17.40;99.90
19799;DHT22;10059;59.850;10.454;2023-07-16T12:14:05;17.60;99.90
19799;DHT22;10059;59.850;10.454;2023-07-16T12:16:32;17.90;99.90
19799;DHT22;10059;59.850;10.454;2023-07-16T12:18:59;18.10;99.90
19799;DHT22;10059;59.850;10.454;2023-07-16T12:21:26;18.10;99.90
19799;DHT22;10059;59.850;10.454;2023-07-16T12:23:53;18.20;99.90
19799;DHT22;10059;59.850;10.454;2023-07-16T12:26:19;17.80;99.90
19799;DHT22;10059;59.850;10.454;2023-07-16T12:28:46;17.70;99.90
19799;DHT22;10059;59.850;10.454;2023-07-16T12:31:15;17.50;99.90
19799;DHT22;10059;59.850;10.454;2023-07-16T12:33:42;17.30;99.90
19799;DHT22;10059;59.850;10.454;2023-07-16T12:36:09;17.40;99.90
19799;DHT22;10059;59.850;10.454;2023-07-16T12:38:36;17.10;99.90
19799;DHT22;10059;59.850;10.454;2023-07-16T12:41:02;17.10;99.90
19799;DHT22;10059;59.850;10.454;2023-07-16T12:43:29;17.00;99.90
19799;DHT22;10059;59.850;10.454;2023-07-16T12:45:59;16.90;99.90
19799;DHT22;10059;59.850;10.454;2023-07-16T12:48:28;16.70;99.90
19799;DHT22;10059;59.850;10.454;2023-07-16T12:50:54;16.70;99.90
19799;DHT22;10059;59.850;10.454;2023-07-16T12:53:21;16.80;99.90
19799;DHT22;10059;59.850;10.454;2023-07-16T12:55:48;16.90;99.90
19799;DHT22;10059;59.850;10.454;2023-07-16T12:58:15;16.90;99.90
19799;DHT22;10059;59.850;10.454;2023-07-16T13:00:42;16.60;99.90
19799;DHT22;10059;59.850;10.454;2023-07-16T13:03:09;16.60;99.90
19799;DHT22;10059;59.850;10.454;2023-07-16T13:05:38;16.60;99.90
19799;DHT22;10059;59.850;10.454;2023-07-16T13:08:05;16.70;99.90
19799;DHT22;10059;59.850;10.454;2023-07-16T13:10:32;16.70;99.90
19799;DHT22;10059;59.850;10.454;2023-07-16T13:12:58;16.80;99.90
19799;DHT22;10059;59.850;10.454;2023-07-16T13:15:25;16.90;99.90
19799;DHT22;10059;59.850;10.454;2023-07-16T13:17:52;17.20;99.90
19799;DHT22;10059;59.850;10.454;2023-07-16T13:20:20;17.20;99.90
19799;DHT22;10059;59.850;10.454;2023-07-16T13:22:49;17.20;99.90
19799;DHT22;10059;59.850;10.454;2023-07-16T13:25:16;17.40;99.90
19799;DHT22;10059;59.850;10.454;2023-07-16T13:27:43;17.30;99.90
19799;DHT22;10059;59.850;10.454;2023-07-16T13:30:10;17.50;99.90
19799;DHT22;10059;59.850;10.454;2023-07-16T13:32:37;17.50;99.90
19799;DHT22;10059;59.850;10.454;2023-07-16T13:35:05;17.40;99.90
19799;DHT22;10059;59.850;10.454;2023-07-16T13:37:31;17.60;99.90
19799;DHT22;10059;59.850;10.454;2023-07-16T13:40:00;17.40;99.90
19799;DHT22;10059;59.850;10.454;2023-07-16T13:42:27;17.30;99.90
19799;DHT22;10059;59.850;10.454;2023-07-16T13:44:53;17.40;99.90
19799;DHT22;10059;59.850;10.454;2023-07-16T13:47:21;17.30;99.90
19799;DHT22;10059;59.850;10.454;2023-07-16T13:49:47;17.30;99.90
19799;DHT22;10059;59.850;10.454;2023-07-16T13:52:14;17.60;99.90
19799;DHT22;10059;59.850;10.454;2023-07-16T13:54:41;17.50;99.90
19799;DHT22;10059;59.850;10.454;2023-07-16T13:57:09;17.60;99.90
19799;DHT22;10059;59.850;10.454;2023-07-16T13:59:36;17.60;99.90
19799;DHT22;10059;59.850;10.454;2023-07-16T14:02:03;17.30;99.90
19799;DHT22;10059;59.850;10.454;2023-07-16T14:04:30;17.00;99.90
19799;DHT22;10059;59.850;10.454;2023-07-16T14:06:58;17.00;99.90
19799;DHT22;10059;59.850;10.454;2023-07-16T14:09:25;16.90;99.90
19799;DHT22;10059;59.850;10.454;2023-07-16T14:11:52;16.80;99.90
19799;DHT22;10059;59.850;10.454;2023-07-16T14:14:21;16.80;99.90
19799;DHT22;10059;59.850;10.454;2023-07-16T14:16:48;16.70;99.90
19799;DHT22;10059;59.850;10.454;2023-07-16T14:19:14;16.90;99.90
19799;DHT22;10059;59.850;10.454;2023-07-16T14:21:41;17.00;99.90
19799;DHT22;10059;59.850;10.454;2023-07-16T14:24:08;17.20;99.90
19799;DHT22;10059;59.850;10.454;2023-07-16T14:26:35;17.30;99.90
19799;DHT22;10059;59.850;10.454;2023-07-16T14:29:02;17.20;99.90
19799;DHT22;10059;59.850;10.454;2023-07-16T14:31:31;17.30;99.90
19799;DHT22;10059;59.850;10.454;2023-07-16T14:33:57;17.40;99.90
19799;DHT22;10059;59.850;10.454;2023-07-16T14:36:24;17.30;99.90
19799;DHT22;10059;59.850;10.454;2023-07-16T14:38:52;17.40;99.90
19799;DHT22;10059;59.850;10.454;2023-07-16T14:41:20;17.60;99.90
19799;DHT22;10059;59.850;10.454;2023-07-16T14:43:47;17.70;99.90
19799;DHT22;10059;59.850;10.454;2023-07-16T14:46:15;17.60;99.90
19799;DHT22;10059;59.850;10.454;2023-07-16T14:48:43;17.50;99.90
19799;DHT22;10059;59.850;10.454;2023-07-16T14:51:11;17.40;99.90
19799;DHT22;10059;59.850;10.454;2023-07-16T14:53:38;17.60;99.90
19799;DHT22;10059;59.850;10.454;2023-07-16T14:56:05;17.50;99.90
19799;DHT22;10059;59.850;10.454;2023-07-16T14:58:33;17.70;99.90
19799;DHT22;10059;59.850;10.454;2023-07-16T15:01:02;17.70;99.90
19799;DHT22;10059;59.850;10.454;2023-07-16T15:03:33;17.70;99.90
19799;DHT22;10059;59.850;10.454;2023-07-16T15:06:02;17.70;99.90
19799;DHT22;10059;59.850;10.454;2023-07-16T15:08:29;17.80;99.90
19799;DHT22;10059;59.850;10.454;2023-07-16T15:10:56;17.70;99.90
19799;DHT22;10059;59.850;10.454;2023-07-16T15:13:23;17.80;99.90
19799;DHT22;10059;59.850;10.454;2023-07-16T15:15:53;17.80;99.90
19799;DHT22;10059;59.850;10.454;2023-07-16T15:18:20;17.80;99.90